createdAt,value
2022-09-27T00:01:08.208Z,85.10
2022-09-27T00:03:35.895Z,85.10
2022-09-27T00:06:06.146Z,85.20
2022-09-27T00:08:34.710Z,85.10
2022-09-27T00:11:06.994Z,85.30
2022-09-27T00:13:34.383Z,85.30
2022-09-27T00:16:05.531Z,85.50
2022-09-27T00:18:33.568Z,85.10
2022-09-27T00:21:09.423Z,85.20
2022-09-27T00:23:37.483Z,85.30
2022-09-27T00:26:05.875Z,85.10
2022-09-27T00:28:33.950Z,85.30
2022-09-27T00:31:01.400Z,85.20
2022-09-27T00:33:28.792Z,85.30
2022-09-27T00:35:56.009Z,85.60
2022-09-27T00:38:23.106Z,85.10
2022-09-27T00:40:50.871Z,85.10
2022-09-27T00:43:23.442Z,85.10
2022-09-27T00:45:59.838Z,85.30
2022-09-27T00:48:30.827Z,85.20
2022-09-27T00:51:02.187Z,85.30
2022-09-27T00:53:37.241Z,85.30
2022-09-27T00:56:10.871Z,85.00
2022-09-27T00:58:45.330Z,85.00
2022-09-27T01:01:14.477Z,85.10
2022-09-27T01:03:46.345Z,85.00
2022-09-27T01:06:14.888Z,85.30
2022-09-27T01:08:42.053Z,85.00
2022-09-27T01:11:46.515Z,85.10
2022-09-27T01:14:13.564Z,85.00
2022-09-27T01:16:52.985Z,85.10
2022-09-27T01:19:41.233Z,85.30
2022-09-27T01:22:17.841Z,85.50
2022-09-27T01:25:08.733Z,85.10
2022-09-27T01:28:15.503Z,84.90
2022-09-27T01:31:01.380Z,85.30
2022-09-27T01:33:28.539Z,85.20
2022-09-27T01:36:05.198Z,85.30
2022-09-27T01:38:51.879Z,85.00
2022-09-27T01:41:28.257Z,85.20
2022-09-27T01:44:11.319Z,85.00
2022-09-27T01:46:44.224Z,85.20
2022-09-27T01:49:20.585Z,85.00
2022-09-27T01:52:03.008Z,85.10
2022-09-27T01:54:50.854Z,84.90
2022-09-27T01:57:22.643Z,85.30
2022-09-27T01:59:58.416Z,84.90
2022-09-27T02:02:28.900Z,84.90
2022-09-27T02:05:03.579Z,84.90
2022-09-27T02:08:12.251Z,84.90
2022-09-27T02:10:43.849Z,85.00
2022-09-27T02:13:10.969Z,84.80
2022-09-27T02:15:51.238Z,84.90
2022-09-27T02:18:28.245Z,84.90
2022-09-27T02:21:00.540Z,85.00
2022-09-27T02:23:46.744Z,85.00
2022-09-27T02:26:30.989Z,84.90
2022-09-27T02:29:07.720Z,84.90
2022-09-27T02:31:35.133Z,85.00
2022-09-27T02:34:14.264Z,85.00
2022-09-27T02:36:41.572Z,85.20
2022-09-27T02:39:09.138Z,85.00
2022-09-27T02:41:36.366Z,84.90
2022-09-27T02:44:07.704Z,85.00
2022-09-27T02:46:59.033Z,84.90
2022-09-27T02:49:50.987Z,84.90
2022-09-27T02:52:54.368Z,84.90
2022-09-27T02:55:35.545Z,84.90
2022-09-27T02:58:17.712Z,84.80
2022-09-27T03:00:47.669Z,84.80
2022-09-27T03:03:26.862Z,84.90
2022-09-27T03:06:03.203Z,84.90
2022-09-27T03:08:30.376Z,84.90
2022-09-27T03:10:57.500Z,85.00
2022-09-27T03:13:24.725Z,84.90
2022-09-27T03:15:51.984Z,84.80
2022-09-27T03:18:19.233Z,84.70
2022-09-27T03:20:46.373Z,84.80
2022-09-27T03:23:13.621Z,84.50
2022-09-27T03:25:41.364Z,84.60
2022-09-27T03:28:09.383Z,84.70
2022-09-27T03:30:37.835Z,84.70
2022-09-27T03:33:05.093Z,84.60
2022-09-27T03:35:32.643Z,84.70
2022-09-27T03:37:59.829Z,84.60
2022-09-27T03:40:27.115Z,84.60
2022-09-27T03:42:55.130Z,84.50
2022-09-27T03:45:22.514Z,84.50
2022-09-27T03:47:49.613Z,84.40
2022-09-27T03:50:16.995Z,84.50
2022-09-27T03:52:44.633Z,84.60
2022-09-27T03:55:13.279Z,84.60
2022-09-27T03:57:44.517Z,84.70
2022-09-27T04:00:12.489Z,84.70
2022-09-27T04:02:40.087Z,84.60
2022-09-27T04:05:07.573Z,84.40
2022-09-27T04:07:34.697Z,84.50
2022-09-27T04:10:02.206Z,84.30
2022-09-27T04:12:29.825Z,84.40
2022-09-27T04:14:56.919Z,84.60
2022-09-27T04:17:25.839Z,84.60
2022-09-27T04:19:53.007Z,84.20
2022-09-27T04:22:20.352Z,84.50
2022-09-27T04:24:47.539Z,85.00
2022-09-27T04:27:14.681Z,84.50
2022-09-27T04:29:45.703Z,84.30
2022-09-27T04:32:13.484Z,84.30
2022-09-27T04:34:59.669Z,84.50
2022-09-27T04:37:27.670Z,84.30
2022-09-27T04:39:54.812Z,84.50
2022-09-27T04:42:21.931Z,84.40
2022-09-27T04:44:49.108Z,84.40
2022-09-27T04:47:17.501Z,84.50
2022-09-27T04:49:44.678Z,84.30
2022-09-27T04:52:12.219Z,84.20
2022-09-27T04:54:39.791Z,84.40
2022-09-27T04:57:08.128Z,84.20
2022-09-27T04:59:35.448Z,84.30
2022-09-27T05:02:02.962Z,84.30
2022-09-27T05:04:30.346Z,84.30
2022-09-27T05:06:57.725Z,84.40
2022-09-27T05:09:24.870Z,84.20
2022-09-27T05:11:52.075Z,84.40
2022-09-27T05:14:19.826Z,84.20
2022-09-27T05:16:48.007Z,84.00
2022-09-27T05:19:15.262Z,84.10
2022-09-27T05:21:43.894Z,84.00
2022-09-27T05:24:11.079Z,84.70
2022-09-27T05:26:38.270Z,85.20
2022-09-27T05:29:05.410Z,85.40
2022-09-27T05:31:32.512Z,84.90
2022-09-27T05:33:59.710Z,85.00
2022-09-27T05:36:26.783Z,84.80
2022-09-27T05:38:54.382Z,84.70
2022-09-27T05:41:21.666Z,84.60
2022-09-27T05:43:49.418Z,84.40
2022-09-27T05:46:16.551Z,84.70
2022-09-27T05:48:43.720Z,84.10
2022-09-27T05:51:11.270Z,84.60
2022-09-27T05:53:38.744Z,84.20
2022-09-27T05:56:06.433Z,84.40
2022-09-27T05:58:34.597Z,84.30
2022-09-27T06:01:01.735Z,84.20
2022-09-27T06:03:28.914Z,84.40
2022-09-27T06:05:55.980Z,84.10
2022-09-27T06:08:23.119Z,84.30
2022-09-27T06:10:50.539Z,84.30
2022-09-27T06:13:18.348Z,84.10
2022-09-27T06:15:47.328Z,84.00
2022-09-27T06:18:18.345Z,84.00
2022-09-27T06:20:45.968Z,84.00
2022-09-27T06:23:20.904Z,84.20
2022-09-27T06:25:48.669Z,84.00
2022-09-27T06:28:16.539Z,84.00
2022-09-27T06:30:46.372Z,84.00
2022-09-27T06:33:15.583Z,83.90
2022-09-27T06:35:45.406Z,83.90
2022-09-27T06:38:15.728Z,84.40
2022-09-27T06:40:47.155Z,84.50
2022-09-27T06:43:17.858Z,84.40
2022-09-27T06:45:45.130Z,84.40
2022-09-27T06:48:14.217Z,84.50
2022-09-27T06:50:44.257Z,84.20
2022-09-27T06:53:13.607Z,84.10
2022-09-27T06:55:41.200Z,84.20
2022-09-27T06:58:29.351Z,84.20
2022-09-27T07:00:56.631Z,83.90
2022-09-27T07:03:30.714Z,83.90
2022-09-27T07:06:05.264Z,84.00
2022-09-27T07:08:34.226Z,83.80
2022-09-27T07:11:07.554Z,83.90
2022-09-27T07:13:40.379Z,83.90
2022-09-27T07:16:08.078Z,84.00
2022-09-27T07:18:35.346Z,83.80
2022-09-27T07:21:02.577Z,84.00
2022-09-27T07:23:29.808Z,84.00
2022-09-27T07:25:57.011Z,83.90
2022-09-27T07:28:24.149Z,84.00
2022-09-27T07:30:56.214Z,84.00
2022-09-27T07:33:23.645Z,83.80
2022-09-27T07:35:50.859Z,83.80
2022-09-27T07:38:18.059Z,83.90
2022-09-27T07:40:45.270Z,83.70
2022-09-27T07:43:13.069Z,83.80
2022-09-27T07:45:40.759Z,84.00
2022-09-27T07:48:10.770Z,84.00
2022-09-27T07:50:38.371Z,83.90
2022-09-27T07:53:05.826Z,83.90
2022-09-27T07:55:33.004Z,83.80
2022-09-27T07:58:09.130Z,83.80
2022-09-27T08:00:37.664Z,83.90
2022-09-27T08:03:10.703Z,83.80
2022-09-27T08:05:38.066Z,83.80
2022-09-27T08:08:05.581Z,83.90
2022-09-27T08:10:34.120Z,83.90
2022-09-27T08:13:03.638Z,83.90
2022-09-27T08:15:36.167Z,83.90
2022-09-27T08:18:03.498Z,84.00
2022-09-27T08:20:30.660Z,84.10
2022-09-27T08:22:57.879Z,84.00
2022-09-27T08:25:25.047Z,83.90
2022-09-27T08:28:00.333Z,84.00
2022-09-27T08:30:31.113Z,84.00
2022-09-27T08:33:03.410Z,84.00
2022-09-27T08:35:34.059Z,84.00
2022-09-27T08:38:02.921Z,84.10
2022-09-27T08:41:01.690Z,83.90
2022-09-27T08:43:46.829Z,84.00
2022-09-27T08:46:27.085Z,84.30
2022-09-27T08:49:06.069Z,84.10
2022-09-27T08:51:35.218Z,84.10
2022-09-27T08:54:09.201Z,84.10
2022-09-27T08:56:37.300Z,84.10
2022-09-27T08:59:13.625Z,84.10
2022-09-27T09:01:41.568Z,84.10
2022-09-27T09:04:11.156Z,84.00
2022-09-27T09:07:23.150Z,84.00
2022-09-27T09:10:37.696Z,84.10
2022-09-27T09:13:28.151Z,84.20
2022-09-27T09:16:16.084Z,84.00
2022-09-27T09:18:52.200Z,84.00
2022-09-27T09:21:28.175Z,84.20
2022-09-27T09:24:25.993Z,84.10
2022-09-27T09:27:14.733Z,84.10
2022-09-27T09:29:56.701Z,84.10
2022-09-27T09:32:47.428Z,84.00
2022-09-27T09:35:22.839Z,84.00
2022-09-27T09:37:57.628Z,84.00
2022-09-27T09:40:43.494Z,84.00
2022-09-27T09:43:29.097Z,84.00
2022-09-27T09:46:02.676Z,84.20
2022-09-27T09:48:49.935Z,84.10
2022-09-27T09:51:22.760Z,84.10
2022-09-27T09:54:02.996Z,84.10
2022-09-27T09:56:33.184Z,84.20
2022-09-27T09:59:03.037Z,84.10
2022-09-27T10:01:44.977Z,84.00
2022-09-27T10:04:25.334Z,84.00
2022-09-27T10:06:53.468Z,84.10
2022-09-27T10:09:27.993Z,84.00
2022-09-27T10:11:55.373Z,84.20
2022-09-27T10:14:22.948Z,84.30
2022-09-27T10:16:59.015Z,84.00
2022-09-27T10:19:30.506Z,84.20
2022-09-27T10:22:18.756Z,84.10
2022-09-27T10:25:03.616Z,84.10
2022-09-27T10:27:42.151Z,84.10
2022-09-27T10:30:24.807Z,84.00
2022-09-27T10:32:57.073Z,84.10
2022-09-27T10:35:30.144Z,84.10
2022-09-27T10:38:32.669Z,84.20
2022-09-27T10:41:16.880Z,84.20
2022-09-27T10:43:44.274Z,84.10
2022-09-27T10:46:26.677Z,84.10
2022-09-27T10:49:34.147Z,84.20
2022-09-27T10:52:27.801Z,84.20
2022-09-27T10:55:01.246Z,84.40
2022-09-27T10:57:30.844Z,84.20
2022-09-27T11:00:24.450Z,84.10
2022-09-27T11:03:04.810Z,84.20
2022-09-27T11:05:39.716Z,85.10
2022-09-27T11:08:24.128Z,84.20
2022-09-27T11:11:08.063Z,84.70
2022-09-27T11:13:36.212Z,84.50
2022-09-27T11:16:11.920Z,84.40
2022-09-27T11:19:15.286Z,84.50
2022-09-27T11:21:51.711Z,84.70
2022-09-27T11:24:28.869Z,84.50
2022-09-27T11:27:15.442Z,84.30
2022-09-27T11:30:13.068Z,84.20
2022-09-27T11:33:24.316Z,85.30
2022-09-27T11:35:57.662Z,84.60
2022-09-27T11:38:52.639Z,84.30
2022-09-27T11:41:30.262Z,84.10
2022-09-27T11:44:15.393Z,84.20
2022-09-27T11:46:43.276Z,84.30
2022-09-27T11:49:37.780Z,84.20
2022-09-27T11:52:36.784Z,84.70
2022-09-27T11:55:24.133Z,85.00
2022-09-27T11:57:54.414Z,84.30
2022-09-27T12:00:24.667Z,84.20
2022-09-27T12:02:58.115Z,84.40
2022-09-27T12:05:37.048Z,84.80
2022-09-27T12:08:21.898Z,84.90
2022-09-27T12:10:54.353Z,84.90
2022-09-27T12:13:38.604Z,84.80
2022-09-27T12:16:06.469Z,84.50
2022-09-27T12:18:41.018Z,84.30
2022-09-27T12:21:10.402Z,84.40
2022-09-27T12:23:45.206Z,84.30
2022-09-27T12:26:40.858Z,84.30
2022-09-27T12:29:39.717Z,85.00
2022-09-27T12:32:23.070Z,84.20
2022-09-27T12:35:00.304Z,84.10
2022-09-27T12:37:52.818Z,84.10
2022-09-27T12:40:25.735Z,84.10
2022-09-27T12:43:06.593Z,84.10
2022-09-27T12:45:56.864Z,84.40
2022-09-27T12:48:40.760Z,84.30
2022-09-27T12:51:14.351Z,84.50
2022-09-27T12:54:09.337Z,84.60
2022-09-27T12:57:02.396Z,84.60
2022-09-27T12:59:51.990Z,84.80
2022-09-27T13:02:57.340Z,84.70
2022-09-27T13:06:05.144Z,84.80
2022-09-27T13:08:54.656Z,84.30
2022-09-27T13:11:40.530Z,84.30
2022-09-27T13:14:20.293Z,84.60
2022-09-27T13:16:49.388Z,84.70
2022-09-27T13:19:37.927Z,84.50
2022-09-27T13:22:29.557Z,85.30
2022-09-27T13:24:56.676Z,84.50
2022-09-27T13:27:23.808Z,84.50
2022-09-27T13:29:51.826Z,84.80
2022-09-27T13:32:21.635Z,84.70
2022-09-27T13:34:53.942Z,84.40
2022-09-27T13:37:40.166Z,84.10
2022-09-27T13:40:16.197Z,84.40
2022-09-27T13:42:50.275Z,84.10
2022-09-27T13:45:28.339Z,84.30
2022-09-27T13:47:57.195Z,84.20
2022-09-27T13:50:26.387Z,84.20
2022-09-27T13:53:18.782Z,84.10
2022-09-27T13:55:50.384Z,84.10
2022-09-27T13:58:39.030Z,84.10
2022-09-27T14:01:18.731Z,84.20
2022-09-27T14:03:46.956Z,84.60
2022-09-27T14:06:18.792Z,84.60
2022-09-27T14:08:59.543Z,84.50
2022-09-27T14:11:38.082Z,84.60
2022-09-27T14:14:07.965Z,84.40
2022-09-27T14:16:41.941Z,84.40
2022-09-27T14:19:17.822Z,84.50
2022-09-27T14:21:47.045Z,84.10
2022-09-27T14:24:24.736Z,84.10
2022-09-27T14:27:11.396Z,84.10
2022-09-27T14:29:46.856Z,84.10
2022-09-27T14:32:17.360Z,84.50
2022-09-27T14:34:44.950Z,84.20
2022-09-27T14:37:30.254Z,84.50
2022-09-27T14:39:59.492Z,83.90
2022-09-27T14:42:29.105Z,83.80
2022-09-27T14:45:01.698Z,83.90
2022-09-27T14:47:29.592Z,83.70
2022-09-27T14:50:05.350Z,83.80
2022-09-27T14:52:35.530Z,83.80
2022-09-27T14:55:07.826Z,83.80
2022-09-27T14:57:37.290Z,83.80
2022-09-27T15:00:20.812Z,83.70
2022-09-27T15:02:51.087Z,83.80
2022-09-27T15:05:19.977Z,83.90
2022-09-27T15:07:48.320Z,83.80
2022-09-27T15:10:21.162Z,83.90
2022-09-27T15:12:57.813Z,83.80
2022-09-27T15:15:31.370Z,83.80
2022-09-27T15:18:03.020Z,83.70
2022-09-27T15:20:35.772Z,83.70
2022-09-27T15:23:04.875Z,83.70
2022-09-27T15:26:07.202Z,83.60
2022-09-27T15:28:39.393Z,83.60
2022-09-27T15:31:08.986Z,83.50
2022-09-27T15:33:36.452Z,83.50
2022-09-27T15:36:06.569Z,83.40
2022-09-27T15:38:46.374Z,83.50
2022-09-27T15:41:18.939Z,83.40
2022-09-27T15:43:50.824Z,83.50
2022-09-27T15:46:38.491Z,83.50
2022-09-27T15:49:22.582Z,83.50
2022-09-27T15:51:54.943Z,83.50
2022-09-27T15:54:24.291Z,83.40
2022-09-27T15:56:55.596Z,83.30
2022-09-27T15:59:28.083Z,83.30
2022-09-27T16:01:58.660Z,83.50
2022-09-27T16:04:31.355Z,84.80
2022-09-27T16:07:04.036Z,84.50
2022-09-27T16:09:31.221Z,84.30
2022-09-27T16:11:58.365Z,84.20
2022-09-27T16:14:25.483Z,84.10
2022-09-27T16:16:59.179Z,84.10
2022-09-27T16:19:26.292Z,84.30
2022-09-27T16:21:53.457Z,84.00
2022-09-27T16:24:20.575Z,84.00
2022-09-27T16:26:47.741Z,84.00
2022-09-27T16:29:16.137Z,84.00
2022-09-27T16:31:44.312Z,84.00
2022-09-27T16:34:12.922Z,84.10
2022-09-27T16:36:40.914Z,84.10
2022-09-27T16:39:12.888Z,84.60
2022-09-27T16:41:43.863Z,84.00
2022-09-27T16:44:14.137Z,84.10
2022-09-27T16:46:42.571Z,84.10
2022-09-27T16:49:30.039Z,84.00
2022-09-27T16:52:00.493Z,84.00
2022-09-27T16:54:29.399Z,84.10
2022-09-27T16:56:58.157Z,84.10
2022-09-27T16:59:25.648Z,84.00
2022-09-27T17:01:53.630Z,84.00
2022-09-27T17:04:20.959Z,84.10
2022-09-27T17:06:48.137Z,84.10
2022-09-27T17:09:15.409Z,84.10
2022-09-27T17:11:42.504Z,84.00
2022-09-27T17:14:17.173Z,84.70
2022-09-27T17:16:46.195Z,84.10
2022-09-27T17:19:14.916Z,83.80
2022-09-27T17:21:43.725Z,84.00
2022-09-27T17:24:11.098Z,83.90
2022-09-27T17:26:38.451Z,83.80
2022-09-27T17:29:05.571Z,83.80
2022-09-27T17:31:34.984Z,83.60
2022-09-27T17:34:02.997Z,83.70
2022-09-27T17:36:37.530Z,83.80
2022-09-27T17:39:05.358Z,83.60
2022-09-27T17:41:39.611Z,83.60
2022-09-27T17:44:07.459Z,83.50
2022-09-27T17:46:36.709Z,83.50
2022-09-27T17:49:22.601Z,83.50
2022-09-27T17:51:52.175Z,83.30
2022-09-27T17:54:22.960Z,83.20
2022-09-27T17:56:51.113Z,83.10
2022-09-27T17:59:18.597Z,83.10
2022-09-27T18:01:47.949Z,83.20
2022-09-27T18:04:17.284Z,83.10
2022-09-27T18:06:46.714Z,83.00
2022-09-27T18:09:16.380Z,83.00
2022-09-27T18:11:44.352Z,83.00
2022-09-27T18:14:11.579Z,83.00
2022-09-27T18:16:43.109Z,83.10
2022-09-27T18:19:13.720Z,83.10
2022-09-27T18:21:41.029Z,83.50
2022-09-27T18:24:08.694Z,83.20
2022-09-27T18:26:40.393Z,82.50
2022-09-27T18:29:14.209Z,82.60
2022-09-27T18:31:47.383Z,82.70
2022-09-27T18:34:19.041Z,82.60
2022-09-27T18:36:46.340Z,82.50
2022-09-27T18:39:19.169Z,82.30
2022-09-27T18:41:50.495Z,82.30
2022-09-27T18:44:18.610Z,82.40
2022-09-27T18:46:46.950Z,82.30
2022-09-27T18:49:15.265Z,82.20
2022-09-27T18:51:46.270Z,82.20
2022-09-27T18:54:19.390Z,81.80
2022-09-27T18:56:47.786Z,81.90
2022-09-27T18:59:15.804Z,82.00
2022-09-27T19:01:45.845Z,81.80
2022-09-27T19:04:19.264Z,81.70
2022-09-27T19:06:48.824Z,81.70
2022-09-27T19:09:15.946Z,81.70
2022-09-27T19:11:43.079Z,81.60
2022-09-27T19:14:17.205Z,81.40
2022-09-27T19:16:47.199Z,81.30
2022-09-27T19:19:16.027Z,81.40
2022-09-27T19:21:43.234Z,81.20
2022-09-27T19:24:10.444Z,81.40
2022-09-27T19:26:37.521Z,81.30
2022-09-27T19:29:06.525Z,81.30
2022-09-27T19:31:35.930Z,81.20
2022-09-27T19:34:03.917Z,81.20
2022-09-27T19:36:31.584Z,81.20
2022-09-27T19:38:59.058Z,81.10
2022-09-27T19:41:27.106Z,80.90
2022-09-27T19:43:55.760Z,80.90
2022-09-27T19:46:24.360Z,80.90
2022-09-27T19:48:52.306Z,80.90
2022-09-27T19:51:21.994Z,80.80
2022-09-27T19:53:50.322Z,80.80
2022-09-27T19:56:18.227Z,80.70
2022-09-27T19:58:45.766Z,80.80
2022-09-27T20:01:15.593Z,80.60
2022-09-27T20:03:44.262Z,80.50
2022-09-27T20:06:13.917Z,80.40
2022-09-27T20:08:41.947Z,80.50
2022-09-27T20:11:11.670Z,80.50
2022-09-27T20:13:38.888Z,80.40
2022-09-27T20:16:28.254Z,80.30
2022-09-27T20:18:57.480Z,80.20
2022-09-27T20:21:26.989Z,80.20
2022-09-27T20:23:55.952Z,80.30
2022-09-27T20:26:25.331Z,80.30
2022-09-27T20:28:55.197Z,80.20
2022-09-27T20:31:25.041Z,80.10
2022-09-27T20:33:52.680Z,80.10
2022-09-27T20:36:24.138Z,80.00
2022-09-27T20:38:55.244Z,79.90
2022-09-27T20:41:25.892Z,80.00
2022-09-27T20:44:00.305Z,79.80
2022-09-27T20:46:27.601Z,79.80
2022-09-27T20:48:57.399Z,79.70
2022-09-27T20:51:25.151Z,79.60
2022-09-27T20:53:52.734Z,79.70
2022-09-27T20:56:26.799Z,79.70
2022-09-27T20:58:55.589Z,79.40
2022-09-27T21:01:23.950Z,79.50
2022-09-27T21:04:10.099Z,79.20
2022-09-27T21:06:37.227Z,79.30
2022-09-27T21:09:06.452Z,79.30
2022-09-27T21:11:34.095Z,79.10
2022-09-27T21:14:01.258Z,79.20
2022-09-27T21:16:34.299Z,79.10
2022-09-27T21:19:02.284Z,79.10
2022-09-27T21:21:29.824Z,78.90
2022-09-27T21:23:59.966Z,78.80
2022-09-27T21:26:32.090Z,78.90
2022-09-27T21:29:01.522Z,78.80
2022-09-27T21:31:32.062Z,78.50
2022-09-27T21:34:01.411Z,78.70
2022-09-27T21:36:31.000Z,78.70
2022-09-27T21:38:58.602Z,78.50
2022-09-27T21:41:26.947Z,78.50
2022-09-27T21:43:55.067Z,78.60
2022-09-27T21:46:24.756Z,78.50
2022-09-27T21:48:55.733Z,78.30
2022-09-27T21:51:36.629Z,78.30
2022-09-27T21:54:06.412Z,78.30
2022-09-27T21:56:36.123Z,78.30
2022-09-27T21:59:04.649Z,78.40
2022-09-27T22:01:33.944Z,78.30
2022-09-27T22:04:02.594Z,78.10
2022-09-27T22:06:32.177Z,78.20
2022-09-27T22:09:00.873Z,77.90
2022-09-27T22:11:30.518Z,77.90
2022-09-27T22:13:58.509Z,77.90
2022-09-27T22:16:32.286Z,77.80
2022-09-27T22:18:59.857Z,77.70
2022-09-27T22:21:29.162Z,77.90
2022-09-27T22:23:58.564Z,77.80
2022-09-27T22:26:31.382Z,77.90
2022-09-27T22:28:59.687Z,77.90
2022-09-27T22:31:28.198Z,77.90
2022-09-27T22:34:00.656Z,77.70
2022-09-27T22:36:28.848Z,77.70
2022-09-27T22:38:56.548Z,77.60
2022-09-27T22:41:24.339Z,77.70
2022-09-27T22:43:55.101Z,77.70
2022-09-27T22:46:22.665Z,77.70
2022-09-27T22:48:49.914Z,77.40
2022-09-27T22:51:17.817Z,77.70
2022-09-27T22:53:45.048Z,77.50
2022-09-27T22:56:17.776Z,77.60
2022-09-27T22:58:47.307Z,77.50
2022-09-27T23:01:20.673Z,77.50
2022-09-27T23:03:52.970Z,77.50
2022-09-27T23:06:21.349Z,77.50
2022-09-27T23:08:48.929Z,77.40
2022-09-27T23:11:18.698Z,78.20
2022-09-27T23:13:47.868Z,77.40
2022-09-27T23:16:18.119Z,77.50
2022-09-27T23:18:46.476Z,77.60
2022-09-27T23:21:15.689Z,77.50
2022-09-27T23:23:47.221Z,77.30
2022-09-27T23:26:16.537Z,77.20
2022-09-27T23:28:43.743Z,77.20
2022-09-27T23:31:13.915Z,77.10
2022-09-27T23:33:47.567Z,77.00
2022-09-27T23:36:20.389Z,77.10
2022-09-27T23:38:48.696Z,77.30
2022-09-27T23:41:17.329Z,77.30
2022-09-27T23:43:45.308Z,77.30
2022-09-27T23:46:12.747Z,77.20
2022-09-27T23:48:40.516Z,77.30
2022-09-27T23:51:10.517Z,77.40
2022-09-27T23:53:39.132Z,77.20
2022-09-27T23:56:17.204Z,77.20
2022-09-27T23:58:45.797Z,77.10
